Time;durP1;ratioP1;P1;durP2;ratioP2;P2;SDS_P1;SDS_P2;PMS_P1;PMS_P2;Temp;Humidity;BMP_temperature;BMP_pressure;BME280_temperature;BME280_humidity;BME280_pressure;Samples;Min_cycle;Max_cycle;Signal;HPM_P1;HPM_P2
2021/04/20 00:01:12;;;;;;;16.85;13.50;;;;;;;6.25;70.75;99079.34;3549107;40;20050;-63
2021/04/20 00:03:39;;;;;;;17.13;12.48;;;;;;;6.24;70.67;99073.25;3540136;40;20112;-63
2021/04/20 00:06:07;;;;;;;14.75;11.75;;;;;;;6.19;70.79;99060.63;3548700;40;20418;-63
2021/04/20 00:08:34;;;;;;;15.20;12.15;;;;;;;6.19;70.94;99065.03;3549371;40;20049;-63
2021/04/20 00:11:01;;;;;;;16.10;12.93;;;;;;;6.14;70.93;99075.19;3549253;40;20057;-63
2021/04/20 00:13:28;;;;;;;18.20;13.07;;;;;;;6.14;70.94;99069.94;3549393;40;20319;-62
2021/04/20 00:15:55;;;;;;;16.67;13.70;;;;;;;6.15;70.63;99061.91;3548846;40;20046;-62
2021/04/20 00:18:23;;;;;;;16.15;13.50;;;;;;;6.02;70.37;99071.22;3548431;40;20121;-62
2021/04/20 00:20:50;;;;;;;17.83;13.65;;;;;;;5.82;70.43;99068.78;3539570;40;20065;-62
2021/04/20 00:23:16;;;;;;;18.17;13.93;;;;;;;5.62;70.96;99062.09;3550570;40;20049;-62
2021/04/20 00:25:43;;;;;;;15.82;14.07;;;;;;;5.62;71.32;99062.09;3550723;40;20380;-62
2021/04/20 00:28:10;;;;;;;19.88;15.40;;;;;;;5.63;71.24;99059.34;3541968;40;20076;-62
2021/04/20 00:30:37;;;;;;;18.90;14.88;;;;;;;5.57;71.30;99059.13;3551015;40;20057;-62
2021/04/20 00:33:04;;;;;;;19.73;15.35;;;;;;;5.47;71.61;99064.47;3551090;40;20050;-62
2021/04/20 00:35:32;;;;;;;17.25;14.65;;;;;;;5.46;71.72;99062.81;3551213;40;20054;-62
2021/04/20 00:37:58;;;;;;;17.88;14.63;;;;;;;5.38;71.89;99055.69;3553304;40;20051;-62
2021/04/20 00:40:25;;;;;;;18.52;15.20;;;;;;;5.38;72.05;99055.69;3552324;40;20050;-63
2021/04/20 00:42:53;;;;;;;19.02;14.50;;;;;;;5.36;72.35;99049.81;3556391;40;20062;-64
2021/04/20 00:45:23;;;;;;;18.42;14.35;;;;;;;5.41;72.27;99052.78;3556025;40;20054;-63
2021/04/20 00:47:50;;;;;;;19.15;15.10;;;;;;;5.45;72.13;99053.31;3545769;40;20050;-63
2021/04/20 00:50:22;;;;;;;20.30;15.90;;;;;;;5.39;71.95;99054.75;3545585;40;20031;-63
2021/04/20 00:52:50;;;;;;;21.42;15.60;;;;;;;5.24;71.74;99051.03;3550511;40;20400;-63
2021/04/20 00:55:17;;;;;;;19.35;16.20;;;;;;;5.08;71.86;99062.19;3541037;40;20304;-63
2021/04/20 00:57:44;;;;;;;17.58;14.07;;;;;;;4.99;72.23;99057.06;3549701;40;20050;-63
2021/04/20 01:00:13;;;;;;;15.98;13.85;;;;;;;5.01;72.86;99053.28;3540868;40;20062;-62
2021/04/20 01:02:40;;;;;;;17.50;13.00;;;;;;;5.13;72.59;99056.50;3550397;40;20081;-62
2021/04/20 01:05:09;;;;;;;15.80;12.68;;;;;;;5.15;72.50;99047.53;3550223;40;20052;-63
2021/04/20 01:07:37;;;;;;;15.25;12.25;;;;;;;5.33;72.48;99046.66;3551163;40;20038;-62
2021/04/20 01:10:06;;;;;;;18.63;13.55;;;;;;;5.50;72.11;99051.03;3551663;40;20404;-63
2021/04/20 01:12:35;;;;;;;15.40;13.57;;;;;;;5.47;71.43;99046.94;3551243;40;20054;-63
2021/04/20 01:15:04;;;;;;;15.88;12.55;;;;;;;5.30;71.39;99049.59;3542263;40;20085;-62
2021/04/20 01:17:30;;;;;;;16.08;13.27;;;;;;;5.27;71.50;99050.72;3551285;40;20419;-62
2021/04/20 01:20:00;;;;;;;17.35;13.68;;;;;;;5.12;70.94;99049.63;3552363;40;20311;-64
2021/04/20 01:22:33;;;;;;;16.15;13.32;;;;;;;5.08;71.73;99051.72;3551610;40;20042;-64
2021/04/20 01:25:02;;;;;;;16.48;12.65;;;;;;;4.98;71.89;99045.75;3551802;40;20156;-64
2021/04/20 01:27:29;;;;;;;18.08;14.07;;;;;;;5.03;71.92;99050.53;3542604;40;20054;-63
2021/04/20 01:29:57;;;;;;;18.75;13.82;;;;;;;5.02;71.95;99051.47;3551565;40;20407;-62
2021/04/20 01:32:24;;;;;;;15.48;13.32;;;;;;;5.01;71.82;99050.66;3551834;40;20054;-64
2021/04/20 01:34:52;;;;;;;20.08;14.43;;;;;;;4.91;71.75;99047.31;3551045;40;20050;-63
2021/04/20 01:37:19;;;;;;;16.52;13.75;;;;;;;4.88;72.24;99052.84;3549258;40;20049;-63
2021/04/20 01:39:47;;;;;;;17.50;13.73;;;;;;;4.92;71.99;99049.78;3549813;40;20388;-62
2021/04/20 01:42:15;;;;;;;17.52;13.95;;;;;;;4.81;71.84;99046.56;3549733;40;20605;-63
2021/04/20 01:44:43;;;;;;;18.50;13.45;;;;;;;4.60;72.08;99046.84;3549381;40;20061;-62
2021/04/20 01:47:11;;;;;;;15.88;13.60;;;;;;;4.60;72.50;99047.66;3540471;40;20058;-63
2021/04/20 01:49:38;;;;;;;13.98;12.13;;;;;;;4.63;72.38;99051.78;3549521;40;20059;-63
2021/04/20 01:52:08;;;;;;;15.52;13.02;;;;;;;4.77;72.25;99053.06;3549871;40;20042;-63
2021/04/20 01:54:35;;;;;;;16.90;13.35;;;;;;;4.75;72.23;99047.16;3549652;40;20046;-63
2021/04/20 01:57:02;;;;;;;14.57;12.48;;;;;;;4.74;72.24;99046.34;3551292;40;20100;-62
2021/04/20 01:59:30;;;;;;;16.35;13.48;;;;;;;4.77;71.90;99045.22;3551164;40;20069;-64
2021/04/20 02:01:58;;;;;;;16.48;13.35;;;;;;;4.71;71.90;99036.97;3551543;40;20054;-65
2021/04/20 02:04:26;;;;;;;16.85;13.65;;;;;;;4.70;72.11;99040.59;3543223;40;20093;-63
2021/04/20 02:06:53;;;;;;;22.75;15.18;;;;;;;4.67;72.26;99043.50;3551364;40;20065;-63
2021/04/20 02:09:20;;;;;;;21.65;15.60;;;;;;;4.63;71.99;99039.53;3550189;40;20085;-63
2021/04/20 02:11:47;;;;;;;23.90;17.05;;;;;;;4.54;72.06;99039.59;3550213;40;20033;-63
2021/04/20 02:14:14;;;;;;;24.45;17.40;;;;;;;4.47;72.50;99041.97;3551682;40;20339;-64
2021/04/20 02:16:42;;;;;;;24.90;18.67;;;;;;;4.50;72.84;99033.00;3552658;40;20031;-63
2021/04/20 02:19:12;;;;;;;25.85;18.73;;;;;;;4.46;72.96;99040.34;3550663;40;20086;-64
2021/04/20 02:21:40;;;;;;;30.25;20.73;;;;;;;4.41;73.58;99035.56;3550799;40;20049;-63
2021/04/20 02:24:09;;;;;;;28.98;19.38;;;;;;;4.34;73.69;99031.88;3551604;40;20316;-62
2021/04/20 02:26:38;;;;;;;25.52;18.40;;;;;;;4.34;74.05;99031.88;3551223;40;20070;-62
2021/04/20 02:29:07;;;;;;;23.90;17.33;;;;;;;4.37;74.03;99028.97;3550246;40;20061;-62
2021/04/20 02:31:34;;;;;;;22.08;15.90;;;;;;;4.37;73.85;99031.59;3549764;40;20050;-62
2021/04/20 02:34:05;;;;;;;23.98;17.75;;;;;;;4.43;73.04;99038.00;3540771;40;20058;-63
2021/04/20 02:36:35;;;;;;;25.65;18.88;;;;;;;4.36;73.36;99035.16;3596569;23;20139;-65
2021/04/20 02:39:03;;;;;;;24.10;16.80;;;;;;;4.37;73.54;99028.97;3548546;40;20094;-64
2021/04/20 02:41:31;;;;;;;23.02;17.42;;;;;;;4.39;73.58;99034.84;3549925;40;20061;-64
2021/04/20 02:43:59;;;;;;;26.23;18.50;;;;;;;4.42;73.48;99026.72;3549398;40;20046;-65
2021/04/20 02:46:27;;;;;;;23.05;16.70;;;;;;;4.40;73.52;99027.81;3549378;40;20301;-65
2021/04/20 02:48:54;;;;;;;23.15;16.85;;;;;;;4.36;73.19;99032.53;3549190;40;20054;-63
2021/04/20 02:51:22;;;;;;;22.15;17.17;;;;;;;4.34;72.95;99025.81;3549343;40;20050;-64
2021/04/20 02:53:50;;;;;;;23.77;16.92;;;;;;;4.26;72.58;99033.56;3549434;40;20319;-64
2021/04/20 02:56:18;;;;;;;25.73;17.77;;;;;;;4.14;72.96;99027.72;3540673;40;20065;-66
2021/04/20 02:58:46;;;;;;;29.25;20.02;;;;;;;4.07;73.33;99031.88;3549230;40;20109;-64
2021/04/20 03:01:18;;;;;;;30.20;20.48;;;;;;;3.98;73.92;99023.94;3539932;40;20052;-64
2021/04/20 03:03:47;;;;;;;31.90;21.27;;;;;;;3.98;74.08;99029.16;3540171;40;20046;-64
2021/04/20 03:06:17;;;;;;;29.17;20.90;;;;;;;3.94;74.32;99026.97;3549120;40;20072;-65
2021/04/20 03:08:49;;;;;;;35.58;21.88;;;;;;;3.95;74.36;99026.81;3539932;40;20031;-63
2021/04/20 03:11:20;;;;;;;37.60;22.48;;;;;;;3.87;74.30;99024.09;3549199;40;20046;-63
2021/04/20 03:13:47;;;;;;;33.05;22.08;;;;;;;3.84;74.69;99028.84;3549365;40;20050;-64
2021/04/20 03:16:26;;;;;;;35.30;21.40;;;;;;;3.85;74.70;99028.66;3549249;40;20058;-64
2021/04/20 03:18:56;;;;;;;33.20;22.05;;;;;;;3.83;74.92;99027.16;3539620;40;20396;-64
2021/04/20 03:21:24;;;;;;;32.03;21.40;;;;;;;3.81;74.68;99022.09;3549748;40;20050;-65
2021/04/20 03:23:55;;;;;;;34.58;22.63;;;;;;;3.78;74.46;99029.38;3549782;40;20066;-64
2021/04/20 03:26:36;;;;;;;38.90;24.80;;;;;;;3.68;75.02;99021.59;3549360;40;20050;-64
2021/04/20 03:29:06;;;;;;;35.70;22.55;;;;;;;3.69;75.47;99020.63;3549709;40;20078;-64
2021/04/20 03:31:37;;;;;;;33.33;22.52;;;;;;;3.80;75.60;99019.63;3551753;40;20079;-63
2021/04/20 03:34:12;;;;;;;30.92;20.50;;;;;;;3.84;75.69;99023.59;3553303;40;20331;-64
2021/04/20 03:36:43;;;;;;;38.08;22.85;;;;;;;3.97;75.61;99021.47;3553278;40;20070;-65
2021/04/20 03:39:15;;;;;;;35.65;23.45;;;;;;;3.95;75.26;99018.97;3552806;40;20042;-66
2021/04/20 03:41:49;;;;;;;31.67;20.25;;;;;;;3.90;75.04;99013.38;3543061;40;20552;-65
2021/04/20 03:44:22;;;;;;;32.70;22.45;;;;;;;3.92;75.31;99015.84;3551250;40;20427;-64
2021/04/20 03:46:52;;;;;;;32.03;19.30;;;;;;;3.95;75.48;99024.22;3550118;40;20038;-61
2021/04/20 03:49:24;;;;;;;32.53;22.65;;;;;;;4.02;75.23;99023.66;3540349;40;20129;-64
2021/04/20 03:51:54;;;;;;;35.38;21.75;;;;;;;4.04;74.74;99019.06;3548990;40;20050;-65
2021/04/20 03:54:25;;;;;;;34.15;21.83;;;;;;;4.07;75.12;99016.19;3539550;40;20061;-65
2021/04/20 03:56:55;;;;;;;38.05;22.77;;;;;;;4.10;74.82;99014.09;3540021;40;20133;-65
2021/04/20 03:59:25;;;;;;;57.33;23.58;;;;;;;4.05;74.58;99016.34;3550326;40;20058;-64
2021/04/20 04:01:52;;;;;;;44.40;24.27;;;;;;;3.88;74.22;99017.94;3551110;40;20046;-65
2021/04/20 04:04:23;;;;;;;34.63;23.10;;;;;;;3.78;75.00;99018.94;3550823;40;20058;-64
2021/04/20 04:06:51;;;;;;;52.47;25.48;;;;;;;3.73;75.21;99012.34;3540727;40;20034;-65
2021/04/20 04:09:19;;;;;;;38.47;23.42;;;;;;;3.67;75.57;99017.31;3550736;40;20120;-64
2021/04/20 04:11:53;;;;;;;40.75;24.17;;;;;;;3.60;75.66;99018.88;3541529;40;20046;-65
2021/04/20 04:14:23;;;;;;;34.78;22.67;;;;;;;3.62;76.22;99016.91;3550261;40;20050;-65
2021/04/20 04:16:52;;;;;;;34.53;22.55;;;;;;;3.68;76.13;99013.75;3550004;40;20046;-65
2021/04/20 04:19:20;;;;;;;32.13;22.08;;;;;;;3.76;76.11;99018.25;3550134;40;20057;-65
2021/04/20 04:21:52;;;;;;;35.65;23.73;;;;;;;3.89;75.98;99021.38;3550256;40;20391;-65
2021/04/20 04:24:19;;;;;;;36.97;23.25;;;;;;;3.93;75.45;99020.09;3550372;40;20046;-64
2021/04/20 04:26:52;;;;;;;35.05;23.60;;;;;;;4.00;75.05;99022.94;3549978;40;20061;-64
2021/04/20 04:29:21;;;;;;;34.10;22.13;;;;;;;4.00;75.12;99018.56;3550182;40;20062;-64
2021/04/20 04:31:50;;;;;;;35.78;23.80;;;;;;;4.09;75.03;99020.31;3550425;40;20076;-64
2021/04/20 04:34:18;;;;;;;36.15;24.13;;;;;;;4.09;74.31;99025.53;3550239;40;20052;-64
2021/04/20 04:36:46;;;;;;;44.17;25.77;;;;;;;3.95;73.88;99024.22;3550225;40;20470;-64
2021/04/20 04:39:14;;;;;;;37.40;24.08;;;;;;;3.84;74.73;99020.97;3549965;40;20399;-64
2021/04/20 04:41:42;;;;;;;35.13;23.02;;;;;;;3.89;75.11;99019.56;3541197;40;20054;-64
2021/04/20 04:44:11;;;;;;;40.83;24.10;;;;;;;4.00;74.75;99026.41;3549934;40;20078;-64
2021/04/20 04:46:38;;;;;;;40.08;26.15;;;;;;;4.00;74.47;99028.19;3541704;40;20060;-64
2021/04/20 04:49:06;;;;;;;36.00;23.73;;;;;;;4.02;74.36;99027.09;3550423;40;20403;-64
2021/04/20 04:51:35;;;;;;;31.83;21.63;;;;;;;3.98;74.29;99026.53;3540956;40;20050;-65
2021/04/20 04:54:02;;;;;;;35.30;23.48;;;;;;;4.09;74.51;99025.53;3549879;40;20159;-64
2021/04/20 04:56:30;;;;;;;36.90;23.35;;;;;;;4.24;74.11;99023.22;3549836;40;20137;-64
2021/04/20 04:59:01;;;;;;;32.78;21.60;;;;;;;4.32;74.08;99027.75;3550049;40;20323;-64
2021/04/20 05:01:30;;;;;;;35.70;23.08;;;;;;;4.34;73.32;99021.41;3549882;40;20047;-64
2021/04/20 05:04:06;;;;;;;31.75;21.98;;;;;;;4.27;72.80;99022.94;3549996;40;20054;-63
2021/04/20 05:06:34;;;;;;;35.30;23.08;;;;;;;4.05;72.47;99024.19;3550326;40;20077;-63
2021/04/20 05:09:00;;;;;;;33.17;23.05;;;;;;;3.96;73.27;99031.13;3549196;40;20058;-63
2021/04/20 05:11:29;;;;;;;34.67;23.02;;;;;;;3.96;73.46;99028.50;3541315;40;20058;-64
2021/04/20 05:13:55;;;;;;;33.53;22.60;;;;;;;3.96;73.57;99032.91;3541129;40;20396;-63
2021/04/20 05:16:22;;;;;;;33.70;22.90;;;;;;;3.91;73.69;99032.50;3549943;40;20305;-64
2021/04/20 05:18:50;;;;;;;37.88;23.92;;;;;;;3.97;73.78;99035.38;3540387;40;20054;-65
2021/04/20 05:21:18;;;;;;;37.10;23.08;;;;;;;3.97;74.01;99037.97;3540899;40;20042;-64
2021/04/20 05:23:44;;;;;;;36.25;24.02;;;;;;;4.11;74.27;99041.06;3541188;40;20054;-64
2021/04/20 05:26:11;;;;;;;33.65;23.40;;;;;;;4.16;73.95;99036.22;3551090;40;20058;-63
2021/04/20 05:28:39;;;;;;;36.50;24.40;;;;;;;4.23;73.96;99039.91;3550015;40;20411;-64
2021/04/20 05:31:06;;;;;;;39.90;26.13;;;;;;;4.26;73.60;99041.44;3541808;40;20050;-63
2021/04/20 05:33:33;;;;;;;38.10;24.35;;;;;;;4.28;73.60;99037.66;3541317;40;20082;-63
2021/04/20 05:36:09;;;;;;;38.35;24.42;;;;;;;4.39;73.88;99044.50;3540654;40;20074;-64
2021/04/20 05:38:37;;;;;;;39.00;24.67;;;;;;;4.41;73.43;99037.34;3549594;40;20055;-64
2021/04/20 05:41:06;;;;;;;45.08;27.60;;;;;;;4.53;73.24;99041.41;3550263;40;20046;-63
2021/04/20 05:43:33;;;;;;;41.17;26.40;;;;;;;4.50;73.31;99046.09;3550160;40;20416;-65
2021/04/20 05:45:59;;;;;;;42.03;27.05;;;;;;;4.60;73.19;99044.22;3549712;40;20297;-65
2021/04/20 05:48:26;;;;;;;39.42;25.23;;;;;;;4.67;73.07;99038.25;3540624;40;20061;-64
2021/04/20 05:50:53;;;;;;;51.10;29.27;;;;;;;4.66;72.06;99043.66;3549601;40;20057;-63
2021/04/20 05:53:21;;;;;;;48.90;27.85;;;;;;;4.47;72.10;99044.59;3550052;40;20070;-64
2021/04/20 05:55:49;;;;;;;45.92;29.42;;;;;;;4.38;72.61;99042.88;3550270;40;20050;-62
2021/04/20 05:58:17;;;;;;;37.83;24.85;;;;;;;4.46;73.21;99043.78;3549749;40;20070;-64
2021/04/20 06:00:44;;;;;;;41.25;27.23;;;;;;;4.66;73.16;99044.47;3549890;40;20052;-64
2021/04/20 06:03:11;;;;;;;43.55;26.25;;;;;;;4.81;72.79;99041.31;3549838;40;20057;-65
2021/04/20 06:05:38;;;;;;;43.15;27.73;;;;;;;4.79;72.04;99041.47;3541094;40;20050;-62
2021/04/20 06:08:06;;;;;;;61.90;28.33;;;;;;;4.69;72.08;99044.19;3549249;40;20047;-63
2021/04/20 06:10:34;;;;;;;42.38;25.88;;;;;;;4.64;72.45;99056.06;3550065;40;20323;-63
2021/04/20 06:13:01;;;;;;;44.38;26.40;;;;;;;4.75;72.57;99045.38;3550359;40;20050;-66
2021/04/20 06:15:29;;;;;;;36.55;23.40;;;;;;;4.81;72.43;99050.00;3540508;40;20058;-63
2021/04/20 06:17:56;;;;;;;40.10;26.20;;;;;;;4.93;72.41;99050.59;3549456;40;20046;-63
2021/04/20 06:20:24;;;;;;;40.88;25.83;;;;;;;5.00;71.50;99056.06;3549258;40;20064;-66
2021/04/20 06:22:54;;;;;;;35.92;23.83;;;;;;;4.99;71.90;99062.28;3541020;40;20053;-64
2021/04/20 06:25:22;;;;;;;38.47;26.30;;;;;;;5.10;71.50;99062.03;3541203;40;20053;-63
2021/04/20 06:27:50;;;;;;;37.30;24.60;;;;;;;5.11;71.25;99067.16;3540249;40;20046;-63
2021/04/20 06:30:20;;;;;;;39.75;24.55;;;;;;;5.22;71.76;99063.44;3550822;40;20026;-62
2021/04/20 06:32:48;;;;;;;36.85;24.48;;;;;;;5.31;70.90;99061.75;3556268;40;20050;-63
2021/04/20 06:35:17;;;;;;;39.13;24.50;;;;;;;5.24;70.70;99060.69;3556188;40;20016;-63
2021/04/20 06:37:46;;;;;;;41.65;26.75;;;;;;;5.25;70.73;99068.38;3558266;40;20031;-63
2021/04/20 06:40:17;;;;;;;38.40;24.90;;;;;;;5.24;70.75;99065.94;3557889;40;20053;-63
2021/04/20 06:42:57;;;;;;;43.50;26.70;;;;;;;5.50;71.15;99058.09;3556209;40;20054;-64
2021/04/20 06:45:28;;;;;;;39.22;26.05;;;;;;;5.70;70.98;99059.53;3553114;40;20099;-63
2021/04/20 06:48:03;;;;;;;38.47;25.23;;;;;;;5.79;69.55;99060.38;3543258;40;20050;-63
2021/04/20 06:50:33;;;;;;;40.22;25.02;;;;;;;5.88;70.21;99059.47;3552804;40;20050;-63
2021/04/20 06:53:05;;;;;;;36.80;24.15;;;;;;;5.98;69.11;99057.56;3552446;40;20046;-63
2021/04/20 06:55:41;;;;;;;34.67;24.52;;;;;;;5.89;68.95;99054.06;3542886;40;20339;-63
2021/04/20 06:58:19;;;;;;;32.95;22.80;;;;;;;5.97;69.45;99055.13;3551511;40;20062;-63
2021/04/20 07:00:51;;;;;;;34.72;23.55;;;;;;;5.89;69.26;99054.06;3552617;40;20069;-62
2021/04/20 07:03:27;;;;;;;34.45;23.20;;;;;;;5.92;69.97;99059.03;3552475;40;20289;-64
2021/04/20 07:06:06;;;;;;;36.40;23.95;;;;;;;6.15;69.59;99050.59;3543091;40;20050;-63
2021/04/20 07:08:43;;;;;;;32.08;22.65;;;;;;;6.09;69.32;99054.69;3552469;40;20023;-62
2021/04/20 07:11:13;;;;;;;35.22;23.83;;;;;;;6.21;69.51;99057.84;3551971;40;20053;-63
2021/04/20 07:13:45;;;;;;;42.78;28.08;;;;;;;6.24;69.48;99051.44;3552317;40;20085;-63
2021/04/20 07:16:31;;;;;;;38.97;25.27;;;;;;;6.30;69.64;99050.81;3551924;40;20406;-63
2021/04/20 07:19:15;;;;;;;37.42;25.00;;;;;;;6.52;69.70;99049.41;3553008;40;20050;-62
2021/04/20 07:22:12;;;;;;;40.17;28.23;;;;;;;6.66;68.65;99036.47;3554318;40;20047;-63
2021/04/20 07:25:07;;;;;;;51.30;29.08;;;;;;;6.66;68.39;99044.34;3554714;40;20423;-62
2021/04/20 07:27:50;;;;;;;37.95;26.17;;;;;;;6.73;69.19;99039.25;3554230;40;20380;-63
2021/04/20 07:30:25;;;;;;;38.38;25.92;;;;;;;6.92;68.50;99044.22;3545577;40;20042;-63
2021/04/20 07:33:02;;;;;;;34.60;23.95;;;;;;;6.98;68.78;99042.75;3554225;40;20054;-63
2021/04/20 07:35:35;;;;;;;33.28;24.40;;;;;;;7.11;68.75;99045.69;3545945;40;20060;-62
2021/04/20 07:38:11;;;;;;;37.25;23.48;;;;;;;7.28;68.67;99035.19;3554489;40;20124;-63
2021/04/20 07:40:41;;;;;;;36.13;24.15;;;;;;;7.43;68.61;99041.41;3553369;40;20059;-63
2021/04/20 07:43:21;;;;;;;38.15;25.02;;;;;;;7.65;68.58;99038.06;3553858;40;20062;-63
2021/04/20 07:45:56;;;;;;;34.17;24.75;;;;;;;7.79;67.96;99041.00;3554027;40;20057;-62
2021/04/20 07:48:34;;;;;;;33.97;25.17;;;;;;;7.97;68.00;99035.53;3544253;40;20054;-63
2021/04/20 07:51:28;;;;;;;40.35;27.50;;;;;;;8.16;67.86;99040.38;3553740;40;20045;-65
2021/04/20 07:54:08;;;;;;;41.30;28.33;;;;;;;8.26;67.55;99030.47;3554199;40;20304;-63
2021/04/20 07:56:43;;;;;;;39.65;29.13;;;;;;;8.30;67.29;99031.75;3554566;40;20051;-63
2021/04/20 07:59:17;;;;;;;40.45;30.33;;;;;;;8.35;67.47;99028.59;3544811;40;20037;-64
2021/04/20 08:01:52;;;;;;;41.08;27.45;;;;;;;8.42;67.71;99024.31;3544861;40;20043;-63
2021/04/20 08:04:28;;;;;;;40.35;29.00;;;;;;;8.57;67.58;99016.47;3554034;40;20134;-64
2021/04/20 08:07:02;;;;;;;42.38;31.10;;;;;;;8.71;67.32;99015.75;3552409;40;20062;-64
2021/04/20 08:09:35;;;;;;;45.97;32.38;;;;;;;8.79;67.44;99015.69;3553148;40;20152;-63
2021/04/20 08:12:06;;;;;;;38.57;28.03;;;;;;;8.96;67.25;99016.38;3554091;40;20046;-64
2021/04/20 08:14:39;;;;;;;47.45;33.75;;;;;;;9.20;66.72;99010.09;3553756;40;20085;-63
2021/04/20 08:17:12;;;;;;;45.00;33.50;;;;;;;9.40;66.28;99013.03;3551885;40;20041;-63
2021/04/20 08:19:43;;;;;;;45.75;34.22;;;;;;;9.48;66.00;99010.31;3549742;40;20050;-63
2021/04/20 08:22:14;;;;;;;45.92;32.35;;;;;;;9.54;66.42;99011.41;3540543;40;20100;-63
2021/04/20 08:24:46;;;;;;;48.22;33.13;;;;;;;9.68;66.17;99003.50;3550139;40;20058;-63
2021/04/20 08:27:16;;;;;;;48.25;32.70;;;;;;;9.78;66.18;99000.59;3540031;40;20254;-63
2021/04/20 08:29:47;;;;;;;44.92;31.88;;;;;;;9.95;66.22;98995.94;3548795;40;20046;-64
2021/04/20 08:32:19;;;;;;;45.67;33.38;;;;;;;10.15;66.04;98988.25;3548709;40;20059;-64
2021/04/20 08:34:52;;;;;;;46.17;32.20;;;;;;;10.31;65.51;98992.53;3548425;40;20057;-64
2021/04/20 08:37:31;;;;;;;43.30;31.50;;;;;;;10.51;65.46;98990.94;3548660;40;20053;-64
2021/04/20 08:40:08;;;;;;;39.13;29.52;;;;;;;10.83;63.76;98992.25;3548497;40;20066;-62
2021/04/20 08:43:09;;;;;;;35.05;27.17;;;;;;;11.01;63.51;98981.22;3549147;40;20054;-63
2021/04/20 08:45:41;;;;;;;36.67;29.00;;;;;;;11.12;62.56;98977.25;3550116;40;20402;-64
2021/04/20 08:48:19;;;;;;;38.28;30.13;;;;;;;11.26;61.64;98983.44;3549659;40;20058;-63
2021/04/20 08:50:50;;;;;;;35.13;27.33;;;;;;;11.33;62.17;98982.50;3540931;40;20054;-63
2021/04/20 08:53:31;;;;;;;31.50;25.40;;;;;;;11.65;60.28;98988.19;3550003;40;20054;-63
2021/04/20 08:56:08;;;;;;;29.92;23.27;;;;;;;11.79;59.38;98978.47;3550082;40;20054;-62
2021/04/20 08:59:08;;;;;;;29.60;23.63;;;;;;;11.92;59.11;98983.91;3549801;40;20133;-63
2021/04/20 09:01:46;;;;;;;29.75;24.55;;;;;;;12.09;59.06;98984.38;3542592;40;20046;-63
2021/04/20 09:04:54;;;;;;;32.60;25.38;;;;;;;12.43;57.81;98982.66;3549690;40;20046;-64
2021/04/20 09:07:31;;;;;;;34.35;27.55;;;;;;;12.54;57.58;98982.88;3549635;40;20046;-64
2021/04/20 09:10:05;;;;;;;27.83;23.55;;;;;;;12.70;57.34;98980.88;3549875;40;20054;-64
2021/04/20 09:12:35;;;;;;;29.27;24.00;;;;;;;12.80;57.58;98976.81;3550183;40;20065;-64
2021/04/20 09:15:04;;;;;;;29.13;23.08;;;;;;;12.99;55.88;98977.03;3550048;40;20378;-64
2021/04/20 09:17:37;;;;;;;26.05;21.73;;;;;;;13.05;55.75;98977.00;3549708;40;20061;-65
2021/04/20 09:20:12;;;;;;;29.80;24.55;;;;;;;13.26;54.92;98977.84;3549729;40;20136;-63
2021/04/20 09:22:50;;;;;;;27.98;23.30;;;;;;;13.48;55.02;98973.97;3550269;40;20046;-64
2021/04/20 09:25:20;;;;;;;30.50;24.67;;;;;;;13.37;54.84;98977.25;3549927;40;20055;-64
2021/04/20 09:27:52;;;;;;;28.88;23.38;;;;;;;12.99;54.94;98979.69;3549355;40;20050;-64
2021/04/20 09:30:22;;;;;;;27.38;23.08;;;;;;;13.02;54.95;98977.44;3549709;40;20054;-63
2021/04/20 09:32:53;;;;;;;24.10;19.70;;;;;;;12.98;55.08;98970.06;3549918;40;20054;-64
2021/04/20 09:35:22;;;;;;;25.95;20.60;;;;;;;12.96;55.46;98972.94;3549930;40;20449;-64
2021/04/20 09:37:50;;;;;;;25.08;20.80;;;;;;;13.17;54.56;98971.09;3549989;40;20069;-64
2021/04/20 09:40:20;;;;;;;22.80;20.40;;;;;;;13.48;52.73;98962.53;3549645;40;20046;-63
2021/04/20 09:42:51;;;;;;;22.92;18.33;;;;;;;13.70;52.07;98971.06;3549502;40;20082;-63
2021/04/20 09:45:22;;;;;;;22.42;17.73;;;;;;;13.67;51.70;98956.34;3549546;40;20046;-65
2021/04/20 09:48:00;;;;;;;20.30;17.02;;;;;;;13.83;50.72;98955.88;3549751;40;20027;-63
2021/04/20 09:50:39;;;;;;;19.70;15.77;;;;;;;13.76;49.47;98965.72;3549937;40;20054;-63
2021/04/20 09:53:21;;;;;;;17.92;15.13;;;;;;;13.65;49.76;98963.72;3549794;40;20054;-63
2021/04/20 09:55:58;;;;;;;18.60;16.58;;;;;;;13.79;50.26;98964.47;3549349;40;20053;-64
2021/04/20 09:58:27;;;;;;;20.85;17.92;;;;;;;13.98;49.71;98960.94;3539901;40;20053;-63
2021/04/20 10:01:01;;;;;;;20.70;16.45;;;;;;;14.12;49.42;98957.22;3549485;40;20327;-64
2021/04/20 10:03:37;;;;;;;18.63;15.63;;;;;;;14.33;48.60;98956.09;3549377;40;20057;-64
2021/04/20 10:06:23;;;;;;;17.70;13.95;;;;;;;14.53;48.19;98952.50;3540464;40;20422;-63
2021/04/20 10:09:03;;;;;;;17.65;15.18;;;;;;;14.90;47.32;98950.84;3549609;40;20081;-63
2021/04/20 10:11:39;;;;;;;16.95;14.73;;;;;;;15.08;46.05;98937.56;3542385;40;20046;-63
2021/04/20 10:14:18;;;;;;;16.70;14.85;;;;;;;15.04;45.77;98938.22;3551003;40;20046;-63
2021/04/20 10:16:53;;;;;;;17.13;14.63;;;;;;;14.91;46.07;98938.34;3541569;40;20030;-63
2021/04/20 10:19:28;;;;;;;13.70;12.07;;;;;;;14.99;45.53;98944.19;3549865;40;20397;-63
2021/04/20 10:22:16;;;;;;;15.77;13.82;;;;;;;15.17;45.57;98946.09;3549703;40;20501;-63
2021/04/20 10:24:48;;;;;;;19.27;16.77;;;;;;;15.32;45.67;98937.75;3549957;40;20424;-63
2021/04/20 10:27:20;;;;;;;15.38;13.60;;;;;;;15.48;44.46;98931.06;3549240;40;20046;-65
2021/04/20 10:29:55;;;;;;;14.63;12.90;;;;;;;15.56;42.57;98936.91;3550043;40;20054;-63
2021/04/20 10:32:28;;;;;;;13.73;12.23;;;;;;;15.36;42.64;98933.63;3549704;40;20050;-63
2021/04/20 10:34:56;;;;;;;16.58;13.13;;;;;;;15.26;43.12;98928.78;3550204;40;20398;-63
2021/04/20 10:37:41;;;;;;;13.05;11.75;;;;;;;15.31;43.67;98920.16;3549791;40;20040;-63
2021/04/20 10:40:11;;;;;;;14.98;12.70;;;;;;;15.26;43.06;98922.66;3550333;40;20069;-63
2021/04/20 10:42:40;;;;;;;13.02;11.70;;;;;;;15.29;43.55;98919.56;3549825;40;20046;-63
2021/04/20 10:45:08;;;;;;;15.80;12.48;;;;;;;15.31;43.86;98915.66;3549637;40;20424;-63
2021/04/20 10:47:39;;;;;;;12.52;11.23;;;;;;;15.53;42.92;98915.22;3550052;40;20411;-63
2021/04/20 10:50:07;;;;;;;12.90;11.43;;;;;;;15.70;43.60;98910.94;3550039;40;20090;-64
2021/04/20 10:52:36;;;;;;;12.75;11.35;;;;;;;15.96;42.96;98908.97;3549647;40;20050;-64
2021/04/20 10:55:09;;;;;;;11.15;9.95;;;;;;;16.20;43.13;98905.38;3549560;40;20038;-63
2021/04/20 10:57:40;;;;;;;11.63;10.43;;;;;;;16.34;42.74;98901.50;3549257;40;20046;-63
2021/04/20 11:00:08;;;;;;;14.18;12.35;;;;;;;16.58;41.05;98889.03;3549190;40;20050;-65
2021/04/20 11:02:41;;;;;;;13.98;11.98;;;;;;;16.49;41.73;98892.25;3549666;40;20320;-64
2021/04/20 11:05:11;;;;;;;14.38;12.35;;;;;;;16.33;41.52;98894.53;3550754;40;20412;-65
2021/04/20 11:07:41;;;;;;;12.63;11.38;;;;;;;16.22;41.34;98894.50;3548900;40;20050;-64
2021/04/20 11:10:11;;;;;;;12.32;11.07;;;;;;;16.03;41.16;98891.06;3549381;40;20419;-64
2021/04/20 11:12:41;;;;;;;13.13;10.35;;;;;;;15.88;41.79;98890.63;3540005;40;20300;-65
2021/04/20 11:15:09;;;;;;;12.05;9.68;;;;;;;15.87;42.03;98886.34;3549290;40;20046;-65
2021/04/20 11:17:48;;;;;;;11.90;10.73;;;;;;;15.81;41.72;98893.41;3548932;40;20064;-64
2021/04/20 11:20:17;;;;;;;11.90;10.63;;;;;;;15.63;41.74;98886.19;3549093;40;20323;-64
2021/04/20 11:22:49;;;;;;;11.45;9.95;;;;;;;15.58;42.44;98883.38;3548954;40;20061;-64
2021/04/20 11:25:25;;;;;;;12.88;10.23;;;;;;;15.70;42.14;98883.47;3549049;40;20408;-64
2021/04/20 11:27:57;;;;;;;13.25;10.70;;;;;;;15.95;42.03;98876.19;3539281;40;20050;-65
2021/04/20 11:30:31;;;;;;;13.10;11.55;;;;;;;16.09;41.31;98882.16;3540104;40;20327;-64
2021/04/20 11:33:04;;;;;;;10.57;9.48;;;;;;;16.10;41.56;98870.44;3548970;40;20050;-64
2021/04/20 11:35:31;;;;;;;11.70;10.00;;;;;;;16.15;41.62;98861.75;3548833;40;20046;-64
2021/04/20 11:38:02;;;;;;;11.13;10.02;;;;;;;16.25;41.47;98859.38;3548519;40;20555;-64
2021/04/20 11:40:37;;;;;;;13.15;10.25;;;;;;;16.44;40.63;98863.56;3548866;40;20062;-64
2021/04/20 11:43:05;;;;;;;10.15;8.85;;;;;;;16.56;38.66;98863.59;3549041;40;20046;-64